This demonstration page uses our WeatherBlox Daily Observations layout. Learn more.

36.17497, -115.13722

Hourly Observations for February 12, 2019

Temp ( °F °C ) Dew Point ( °F °C ) Humidity (%) Winds ( mph kmh ) Pressure ( in mb ) Visibility ( mi km ) Precip ( " mm )
12:53 am 00:53 Clear 35 1.7 18 -7.8 50 50 W 3 6 30.3 1026 10 16.09344 0 0
1:53 am 01:53 Clear 33 0.6 19 -7.2 56 56 Calm 30.3 1026 10 16.09344 0 0
2:53 am 02:53 Clear 32 0 18 -7.8 56 56 WNW 5 7 30.3 1026 10 16.09344 0 0
3:53 am 03:53 Clear 32 0 18 -7.8 56 56 W 3 6 30.3 1026 10 16.09344 0 0
4:53 am 04:53 Clear 31 -0.6 18 -7.8 59 59 WNW 5 7 30.3 1026 7 11.265408 0 0
5:53 am 05:53 Clear 31 -0.6 18 -7.8 59 59 NW 3 6 30.33 1027 10 16.09344 0 0
6:53 am 06:53 Sunny 31 -0.6 19 -7.2 61 61 NW 5 7 30.33 1027 10 16.09344 0 0
7:53 am 07:53 Sunny 36 2.2 19 -7.2 50 50 Calm 30.33 1027 10 16.09344 0 0
8:53 am 08:53 Sunny 40 4.4 20 -6.7 45 45 SSE 7 11 30.33 1027 10 16.09344 0 0
9:53 am 09:53 Sunny 43 6.1 17 -8.3 35 35 SE 8 13 30.33 1027 10 16.09344 0 0
10:53 am 10:53 Sunny 45 7.2 18 -7.8 34 34 E 9 15 30.3 1026 10 16.09344 0 0
11:53 am 11:53 Sunny 48 8.9 17 -8.3 29 29 ESE 9 15 30.27 1025 10 16.09344 0 0
12:53 pm 12:53 Sunny 47 8.3 17 -8.3 30 30 SE 8 13 30.24 1024 10 16.09344 0 0
1:53 pm 13:53 Sunny 49 9.4 17 -8.3 28 28 SSE 8 13 30.24 1024 10 16.09344 0 0
2:53 pm 14:53 Sunny 51 10.6 16 -8.9 25 25 ESE 5 7 30.21 1023 10 16.09344 0 0
3:53 pm 15:53 Sunny 51 10.6 16 -8.9 25 25 ESE 3 6 30.18 1022 10 16.09344 0 0
4:53 pm 16:53 Sunny 51 10.6 16 -8.9 25 25 E 3 6 30.18 1022 10 16.09344 0 0
5:53 pm 17:53 Clear 49 9.4 16 -8.9 27 27 ESE 5 7 30.15 1021 10 16.09344 0 0
6:53 pm 18:53 Clear 47 8.3 18 -7.8 31 31 ESE 5 7 30.15 1021 10 16.09344 0 0
7:53 pm 19:53 Clear 46 7.8 19 -7.2 34 34 Calm 30.15 1021 10 16.09344 0 0
8:53 pm 20:53 Clear 46 7.8 21 -6.1 37 37 Calm 30.15 1021 10 16.09344 0 0
9:53 pm 21:53 Clear 45 7.2 21 -6.1 39 39 Calm 30.12 1020 10 16.09344 0 0
10:53 pm 22:53 Clear 44 6.7 21 -6.1 40 40 Calm 30.12 1020 10 16.09344 0 0
11:53 pm 23:53 Clear 42 5.6 23 -5 47 47 Calm 30.09 1019 10 16.09344 0 0

Powered by AerisWeather